createdAt,value
2022-12-14T00:01:26.089Z,-2.39
2022-12-14T00:03:53.953Z,-2.37
2022-12-14T00:06:25.886Z,-2.35
2022-12-14T00:08:54.227Z,-2.32
2022-12-14T00:11:22.502Z,-2.30
2022-12-14T00:13:57.553Z,-2.30
2022-12-14T00:16:25.740Z,-2.30
2022-12-14T00:18:55.816Z,-2.28
2022-12-14T00:21:23.138Z,-2.28
2022-12-14T00:23:51.160Z,-2.26
2022-12-14T00:26:23.538Z,-2.24
2022-12-14T00:29:16.581Z,-2.23
2022-12-14T00:35:48.434Z,-2.26
2022-12-14T00:39:01.768Z,-2.24
2022-12-14T00:41:54.824Z,-2.25
2022-12-14T00:44:35.621Z,-2.27
2022-12-14T00:51:08.507Z,-2.22
2022-12-14T00:57:47.375Z,-2.19
2022-12-14T01:00:52.762Z,-2.17
2022-12-14T01:03:27.482Z,-2.18
2022-12-14T01:06:20.885Z,-2.20
2022-12-14T01:09:06.168Z,-2.21
2022-12-14T01:11:50.346Z,-2.22
2022-12-14T01:14:41.235Z,-2.20
2022-12-14T01:17:14.185Z,-2.23
2022-12-14T01:23:01.756Z,-2.24
2022-12-14T01:25:43.784Z,-2.22
2022-12-14T01:28:15.247Z,-2.24
2022-12-14T01:30:41.604Z,-2.23
2022-12-14T01:33:07.943Z,-2.21
2022-12-14T01:35:34.286Z,-2.19
2022-12-14T01:38:00.770Z,-2.18
2022-12-14T01:40:27.108Z,-2.19
2022-12-14T01:42:53.499Z,-2.18
2022-12-14T01:45:22.228Z,-2.15
2022-12-14T01:47:57.136Z,-2.15
2022-12-14T01:50:34.805Z,-2.17
2022-12-14T01:53:08.173Z,-2.16
2022-12-14T01:55:39.770Z,-2.14
2022-12-14T01:58:16.857Z,-2.13
2022-12-14T02:00:44.437Z,-2.12
2022-12-14T02:03:17.681Z,-2.13
2022-12-14T02:05:52.111Z,-2.15
2022-12-14T02:08:19.765Z,-2.15
2022-12-14T02:10:47.035Z,-2.15
2022-12-14T02:13:22.618Z,-2.15
2022-12-14T02:15:49.279Z,-2.12
2022-12-14T02:18:22.051Z,-2.13
2022-12-14T02:21:19.626Z,-2.13
2022-12-14T02:24:31.765Z,-2.15
2022-12-14T02:27:06.193Z,-2.15
2022-12-14T02:29:51.383Z,-2.14
2022-12-14T02:32:55.274Z,-2.13
2022-12-14T02:35:34.608Z,-2.11
2022-12-14T02:38:35.509Z,-2.10
2022-12-14T02:41:40.264Z,-2.11
2022-12-14T02:44:28.486Z,-2.11
2022-12-14T02:47:06.338Z,-2.11
2022-12-14T02:49:40.447Z,-2.13
2022-12-14T02:52:12.400Z,-2.13
2022-12-14T02:54:44.728Z,-2.09
2022-12-14T02:57:17.511Z,-2.08
2022-12-14T02:59:44.232Z,-2.04
2022-12-14T03:02:13.321Z,-2.05
2022-12-14T03:04:47.463Z,-2.05
2022-12-14T03:07:48.575Z,-2.05
2022-12-14T03:10:32.670Z,-2.06
2022-12-14T03:13:25.381Z,-2.09
2022-12-14T03:16:05.138Z,-2.06
2022-12-14T03:18:42.555Z,-2.07
2022-12-14T03:21:15.376Z,-2.07
2022-12-14T03:23:48.604Z,-2.05
2022-12-14T03:26:20.918Z,-2.04
2022-12-14T03:28:57.661Z,-2.04
2022-12-14T03:31:50.103Z,-2.02
2022-12-14T03:34:22.219Z,-2.02
2022-12-14T03:36:53.719Z,-2.03
2022-12-14T03:39:29.732Z,-2.03
2022-12-14T03:42:17.769Z,-1.99
2022-12-14T03:45:13.955Z,-1.96
2022-12-14T03:48:05.035Z,-1.94
2022-12-14T03:50:43.611Z,-1.96
2022-12-14T03:53:20.594Z,-1.97
2022-12-14T03:55:53.405Z,-2.01
2022-12-14T03:58:52.473Z,-2.01
2022-12-14T04:01:36.473Z,-1.97
2022-12-14T04:04:11.019Z,-2.01
2022-12-14T04:06:45.162Z,-2.02
2022-12-14T04:09:14.471Z,-2.02
2022-12-14T04:12:07.068Z,-2.01
2022-12-14T04:14:55.851Z,-2.04
2022-12-14T04:17:49.062Z,-2.03
2022-12-14T04:20:50.157Z,-2.00
2022-12-14T04:23:46.964Z,-2.02
2022-12-14T04:26:19.416Z,-2.08
2022-12-14T04:29:10.292Z,-2.07
2022-12-14T04:31:39.645Z,-2.05
2022-12-14T04:34:10.931Z,-2.04
2022-12-14T04:36:46.690Z,-2.03
2022-12-14T04:39:22.333Z,-2.01
2022-12-14T04:41:52.181Z,-2.02
2022-12-14T04:44:44.578Z,-2.02
2022-12-14T04:47:14.818Z,-2.03
2022-12-14T04:50:00.723Z,-2.04
2022-12-14T04:52:40.324Z,-2.07
2022-12-14T04:55:17.120Z,-2.05
2022-12-14T04:57:49.435Z,-2.02
2022-12-14T05:00:16.694Z,-2.00
2022-12-14T05:02:58.952Z,-1.97
2022-12-14T05:05:28.527Z,-2.00
2022-12-14T05:08:08.034Z,-2.02
2022-12-14T05:11:50.121Z,-2.00
2022-12-14T05:14:06.864Z,-2.00
2022-12-14T05:16:33.350Z,-1.97
2022-12-14T05:18:59.876Z,-2.01
2022-12-14T05:21:44.882Z,-2.00
2022-12-14T05:24:11.303Z,-1.99
2022-12-14T05:26:38.133Z,-2.00
2022-12-14T05:29:04.606Z,-2.00
2022-12-14T05:31:31.445Z,-1.98
2022-12-14T05:33:57.987Z,-1.97
2022-12-14T05:36:24.618Z,-1.94
2022-12-14T05:38:50.963Z,-1.91
2022-12-14T05:41:17.357Z,-1.93
2022-12-14T05:43:43.729Z,-1.94
2022-12-14T05:46:14.166Z,-1.94
2022-12-14T05:48:43.709Z,-1.96
2022-12-14T05:51:14.453Z,-1.95
2022-12-14T05:53:41.093Z,-1.95
2022-12-14T05:56:09.785Z,-1.95
2022-12-14T05:58:36.866Z,-1.95
2022-12-14T06:01:07.591Z,-1.95
2022-12-14T06:03:34.096Z,-1.93
2022-12-14T06:06:05.895Z,-1.96
2022-12-14T06:08:34.990Z,-1.96
2022-12-14T06:11:11.980Z,-1.95
2022-12-14T06:13:39.651Z,-1.91
2022-12-14T06:16:17.321Z,-1.90
2022-12-14T06:18:46.077Z,-1.89
2022-12-14T06:21:18.008Z,-1.90
2022-12-14T06:24:00.355Z,-1.90
2022-12-14T06:27:19.986Z,-1.90
2022-12-14T06:30:00.891Z,-1.90
2022-12-14T06:32:45.044Z,-1.88
2022-12-14T06:35:16.034Z,-1.89
2022-12-14T06:38:10.050Z,-1.90
2022-12-14T06:40:48.574Z,-1.90
2022-12-14T06:43:33.293Z,-1.89
2022-12-14T06:46:01.843Z,-1.90
2022-12-14T06:48:42.925Z,-1.95
2022-12-14T06:51:30.390Z,-1.98
2022-12-14T06:54:17.489Z,-1.99
2022-12-14T06:56:52.302Z,-2.01
2022-12-14T07:02:22.973Z,-2.05
2022-12-14T07:04:56.265Z,-2.04
2022-12-14T07:07:25.373Z,-2.03
2022-12-14T07:09:58.546Z,-2.02
2022-12-14T07:12:31.300Z,-1.99
2022-12-14T07:15:06.068Z,-2.02
2022-12-14T07:17:41.218Z,-2.03
2022-12-14T07:20:10.515Z,-2.01
2022-12-14T07:22:40.944Z,-1.99
2022-12-14T07:25:09.873Z,-2.00
2022-12-14T07:27:43.335Z,-2.02
2022-12-14T07:30:17.739Z,-2.05
2022-12-14T07:32:53.733Z,-2.03
2022-12-14T07:35:32.168Z,-2.02
2022-12-14T07:38:02.057Z,-2.00
2022-12-14T07:40:53.886Z,-1.94
2022-12-14T07:43:21.738Z,-1.89
2022-12-14T07:48:42.142Z,-1.84
2022-12-14T07:51:14.815Z,-1.85
2022-12-14T07:53:45.032Z,-1.84
2022-12-14T07:56:18.526Z,-1.82
2022-12-14T07:58:46.082Z,-1.82
2022-12-14T08:01:19.239Z,-1.79
2022-12-14T08:03:51.479Z,-1.77
2022-12-14T08:06:20.985Z,-1.77
2022-12-14T08:08:51.870Z,-1.76
2022-12-14T08:11:19.823Z,-1.75
2022-12-14T08:13:47.328Z,-1.71
2022-12-14T08:16:18.099Z,-1.65
2022-12-14T08:18:50.718Z,-1.60
2022-12-14T08:21:21.361Z,-1.52
2022-12-14T08:23:50.002Z,-1.52
2022-12-14T08:26:20.701Z,-1.51
2022-12-14T08:29:02.182Z,-1.51
2022-12-14T08:31:36.471Z,-1.53
2022-12-14T08:34:06.663Z,-1.51
2022-12-14T08:36:38.164Z,-1.43
2022-12-14T08:39:17.123Z,-1.34
2022-12-14T08:41:46.999Z,-1.29
2022-12-14T08:44:19.863Z,-1.24
2022-12-14T08:46:50.594Z,-1.22
2022-12-14T08:49:22.605Z,-1.19
2022-12-14T08:52:02.503Z,-1.18
2022-12-14T08:54:30.239Z,-1.19
2022-12-14T08:57:16.660Z,-1.22
2022-12-14T09:00:17.835Z,-1.21
2022-12-14T09:02:59.959Z,-1.22
2022-12-14T09:05:39.182Z,-1.23
2022-12-14T09:08:47.231Z,-1.21
2022-12-14T09:11:36.797Z,-1.21
2022-12-14T09:14:25.749Z,-1.20
2022-12-14T09:18:06.895Z,-1.18
2022-12-14T09:20:41.711Z,-1.18
2022-12-14T09:38:23.784Z,-1.25
2022-12-14T09:48:33.097Z,-1.24
2022-12-14T09:51:24.343Z,-1.24
2022-12-14T09:54:10.509Z,-1.24
2022-12-14T09:56:47.719Z,-1.25
2022-12-14T09:59:41.852Z,-1.23
2022-12-14T10:02:55.747Z,-1.25
2022-12-14T10:09:06.993Z,-1.23
2022-12-14T10:12:11.838Z,-1.17
2022-12-14T10:14:58.310Z,-1.11
2022-12-14T10:17:30.365Z,-1.12
2022-12-14T10:20:11.734Z,-1.08
2022-12-14T10:22:43.949Z,-1.08
2022-12-14T10:25:26.925Z,-1.05
2022-12-14T10:28:19.234Z,-1.04
2022-12-14T10:31:18.161Z,-0.98
2022-12-14T10:33:53.628Z,-0.91
2022-12-14T10:36:46.469Z,-0.88
2022-12-14T10:39:26.267Z,-0.88
2022-12-14T10:42:06.146Z,-0.89
2022-12-14T10:44:49.506Z,-0.87
2022-12-14T10:47:36.312Z,-0.81
2022-12-14T10:50:25.293Z,-0.77
2022-12-14T10:53:06.017Z,-0.78
2022-12-14T10:55:39.868Z,-0.77
2022-12-14T10:58:06.720Z,-0.76
2022-12-14T11:00:33.101Z,-0.74
2022-12-14T11:03:00.953Z,-0.75
2022-12-14T11:05:36.961Z,-0.67
2022-12-14T11:08:07.277Z,-0.58
2022-12-14T11:10:36.036Z,-0.47
2022-12-14T11:13:18.980Z,-0.40
2022-12-14T11:15:50.870Z,-0.36
2022-12-14T11:18:17.313Z,-0.33
2022-12-14T11:20:56.472Z,-0.35
2022-12-14T11:23:28.111Z,-0.44
2022-12-14T11:25:57.671Z,-0.56
2022-12-14T11:28:54.972Z,-0.60
2022-12-14T11:31:43.573Z,-0.60
2022-12-14T11:34:38.169Z,-0.54
2022-12-14T11:37:27.795Z,-0.45
2022-12-14T11:40:07.081Z,-0.36
2022-12-14T11:42:34.028Z,-0.22
2022-12-14T11:45:28.554Z,-0.14
2022-12-14T11:48:13.616Z,-0.17
2022-12-14T11:50:41.572Z,-0.19
2022-12-14T11:53:14.696Z,-0.20
2022-12-14T11:55:47.622Z,-0.17
2022-12-14T11:58:37.367Z,-0.11
2022-12-14T12:01:12.967Z,-0.05
2022-12-14T12:03:45.076Z,0.00
2022-12-14T12:06:14.483Z,0.05
2022-12-14T12:08:43.580Z,0.08
2022-12-14T12:11:19.632Z,0.11
2022-12-14T12:13:51.786Z,0.17
2022-12-14T12:16:22.460Z,0.22
2022-12-14T12:19:13.119Z,0.24
2022-12-14T12:21:45.045Z,0.16
2022-12-14T12:25:08.680Z,0.14
2022-12-14T12:27:36.666Z,0.12
2022-12-14T12:30:08.265Z,0.10
2022-12-14T12:32:42.721Z,0.12
2022-12-14T12:35:18.192Z,0.07
2022-12-14T12:37:56.075Z,-0.04
2022-12-14T12:40:49.216Z,-0.18
2022-12-14T12:43:23.879Z,-0.26
2022-12-14T12:45:58.695Z,-0.26
2022-12-14T12:48:36.129Z,-0.20
2022-12-14T12:51:11.681Z,-0.20
2022-12-14T12:53:45.119Z,-0.22
2022-12-14T12:56:20.381Z,-0.29
2022-12-14T12:58:52.908Z,-0.30
2022-12-14T13:01:39.397Z,-0.33
2022-12-14T13:04:11.167Z,-0.39
2022-12-14T13:06:46.488Z,-0.43
2022-12-14T13:09:21.957Z,-0.42
2022-12-14T13:11:49.099Z,-0.39
2022-12-14T13:14:17.249Z,-0.42
2022-12-14T13:16:45.715Z,-0.45
2022-12-14T13:22:15.384Z,-0.52
2022-12-14T13:24:45.748Z,-0.56
2022-12-14T13:27:30.924Z,-0.60
2022-12-14T13:30:09.537Z,-0.65
2022-12-14T13:32:58.567Z,-0.67
2022-12-14T13:35:49.563Z,-0.67
2022-12-14T13:38:53.141Z,-0.66
2022-12-14T13:41:31.496Z,-0.60
2022-12-14T13:44:07.812Z,-0.55
2022-12-14T13:46:34.542Z,-0.52
2022-12-14T13:49:06.337Z,-0.51
2022-12-14T13:51:39.691Z,-0.58
2022-12-14T13:54:18.947Z,-0.62
2022-12-14T13:56:45.923Z,-0.66
2022-12-14T13:59:31.223Z,-0.69
2022-12-14T14:02:00.767Z,-0.78
2022-12-14T14:04:31.183Z,-0.82
2022-12-14T14:07:23.658Z,-0.88
2022-12-14T14:09:55.858Z,-0.87
2022-12-14T14:12:39.206Z,-0.89
2022-12-14T14:15:09.999Z,-0.90
2022-12-14T14:17:36.407Z,-0.87
2022-12-14T14:20:26.776Z,-0.85
2022-12-14T14:23:19.191Z,-0.87
2022-12-14T14:25:48.833Z,-0.92
2022-12-14T14:28:22.746Z,-0.98
2022-12-14T14:30:57.951Z,-0.97
2022-12-14T14:33:47.272Z,-0.98
2022-12-14T14:36:26.205Z,-0.98
2022-12-14T14:38:55.010Z,-0.97
2022-12-14T14:41:25.321Z,-0.96
2022-12-14T14:43:55.262Z,-0.97
2022-12-14T14:46:34.438Z,-1.00
2022-12-14T14:49:01.101Z,-1.02
2022-12-14T14:51:29.953Z,-1.02
2022-12-14T14:57:35.707Z,-1.10
2022-12-14T15:00:04.586Z,-1.13
2022-12-14T15:02:33.409Z,-1.15
2022-12-14T15:05:17.998Z,-1.15
2022-12-14T15:07:48.250Z,-1.15
2022-12-14T15:10:26.799Z,-1.17
2022-12-14T15:12:57.077Z,-1.19
2022-12-14T15:15:26.605Z,-1.19
2022-12-14T15:17:53.020Z,-1.20
2022-12-14T15:20:26.812Z,-1.22
2022-12-14T15:22:55.896Z,-1.23
2022-12-14T15:25:29.459Z,-1.24
2022-12-14T15:28:01.404Z,-1.24
2022-12-14T15:30:29.435Z,-1.27
2022-12-14T15:33:03.984Z,-1.25
2022-12-14T15:35:39.444Z,-1.24
2022-12-14T15:38:08.544Z,-1.24
2022-12-14T15:40:35.447Z,-1.25
2022-12-14T15:43:15.819Z,-1.21
2022-12-14T15:45:45.710Z,-1.21
2022-12-14T15:48:22.873Z,-1.19
2022-12-14T15:50:54.479Z,-1.19
2022-12-14T15:53:34.289Z,-1.23
2022-12-14T15:56:18.108Z,-1.26
2022-12-14T15:58:45.144Z,-1.29
2022-12-14T16:01:19.526Z,-1.29
2022-12-14T16:03:51.831Z,-1.33
2022-12-14T16:06:20.333Z,-1.33
2022-12-14T16:08:56.655Z,-1.30
2022-12-14T16:11:32.562Z,-1.27
2022-12-14T16:14:02.785Z,-1.26
2022-12-14T16:16:29.594Z,-1.25
2022-12-14T16:19:13.889Z,-1.25
2022-12-14T16:21:49.561Z,-1.22
2022-12-14T16:24:24.961Z,-1.23
2022-12-14T16:26:57.126Z,-1.23
2022-12-14T16:29:28.554Z,-1.24
2022-12-14T16:32:02.620Z,-1.27
2022-12-14T16:34:29.635Z,-1.30
2022-12-14T16:39:52.418Z,-1.28
2022-12-14T16:42:25.745Z,-1.28
2022-12-14T16:44:57.378Z,-1.25
2022-12-14T16:47:48.962Z,-1.28
2022-12-14T16:53:25.143Z,-1.30
2022-12-14T16:56:14.223Z,-1.29
2022-12-14T16:58:40.782Z,-1.27
2022-12-14T17:01:09.233Z,-1.26
2022-12-14T17:03:37.446Z,-1.27
2022-12-14T17:06:07.147Z,-1.27
2022-12-14T17:08:34.416Z,-1.28
2022-12-14T17:11:02.125Z,-1.29
2022-12-14T17:13:29.062Z,-1.27
2022-12-14T17:16:00.020Z,-1.26
2022-12-14T17:18:31.438Z,-1.27
2022-12-14T17:20:59.222Z,-1.31
2022-12-14T17:23:25.980Z,-1.32
2022-12-14T17:25:52.422Z,-1.31
2022-12-14T17:28:31.120Z,-1.35
2022-12-14T17:31:01.556Z,-1.36
2022-12-14T17:33:29.891Z,-1.38
2022-12-14T17:35:56.642Z,-1.39
2022-12-14T17:38:23.723Z,-1.42
2022-12-14T17:40:51.309Z,-1.44
2022-12-14T17:43:20.949Z,-1.47
2022-12-14T17:45:47.879Z,-1.47
2022-12-14T17:48:16.327Z,-1.48
2022-12-14T17:50:44.801Z,-1.49
2022-12-14T17:53:16.054Z,-1.49
2022-12-14T17:55:42.450Z,-1.48
2022-12-14T17:58:12.297Z,-1.48
2022-12-14T18:00:59.035Z,-1.49
2022-12-14T18:03:26.100Z,-1.47
2022-12-14T18:05:53.147Z,-1.47
2022-12-14T18:08:20.917Z,-1.46
2022-12-14T18:10:50.754Z,-1.42
2022-12-14T18:13:17.503Z,-1.41
2022-12-14T18:15:49.673Z,-1.43
2022-12-14T18:18:18.909Z,-1.42
2022-12-14T18:20:49.616Z,-1.43
2022-12-14T18:23:17.493Z,-1.43
2022-12-14T18:25:47.878Z,-1.44
2022-12-14T18:28:15.103Z,-1.44
2022-12-14T18:30:49.621Z,-1.45
2022-12-14T18:33:25.490Z,-1.44
2022-12-14T18:35:53.710Z,-1.45
2022-12-14T18:38:20.541Z,-1.45
2022-12-14T18:40:50.179Z,-1.44
2022-12-14T18:43:23.439Z,-1.45
2022-12-14T18:45:52.110Z,-1.47
2022-12-14T18:48:18.674Z,-1.46
2022-12-14T18:50:45.271Z,-1.46
2022-12-14T18:53:22.270Z,-1.47
2022-12-14T18:55:49.500Z,-1.48
2022-12-14T18:58:21.826Z,-1.46
2022-12-14T19:00:51.533Z,-1.48
2022-12-14T19:03:19.040Z,-1.49
2022-12-14T19:05:45.518Z,-1.49
2022-12-14T19:08:12.299Z,-1.48
2022-12-14T19:10:42.717Z,-1.49
2022-12-14T19:13:24.786Z,-1.51
2022-12-14T19:15:51.813Z,-1.51
2022-12-14T19:18:18.875Z,-1.49
2022-12-14T19:20:45.330Z,-1.48
2022-12-14T19:23:17.593Z,-1.50
2022-12-14T19:25:44.627Z,-1.51
2022-12-14T19:28:32.515Z,-1.51
2022-12-14T19:30:59.081Z,-1.52
2022-12-14T19:33:26.792Z,-1.52
2022-12-14T19:35:53.743Z,-1.51
2022-12-14T19:38:20.294Z,-1.52
2022-12-14T19:41:02.624Z,-1.51
2022-12-14T19:43:29.994Z,-1.51
2022-12-14T19:45:56.882Z,-1.54
2022-12-14T19:48:23.612Z,-1.55
2022-12-14T19:50:50.156Z,-1.56
2022-12-14T19:53:23.046Z,-1.55
2022-12-14T19:55:53.203Z,-1.53
2022-12-14T19:58:22.023Z,-1.51
2022-12-14T20:00:49.867Z,-1.47
2022-12-14T20:03:16.594Z,-1.48
2022-12-14T20:05:55.004Z,-1.48
2022-12-14T20:08:22.258Z,-1.49
2022-12-14T20:10:49.594Z,-1.48
2022-12-14T20:13:16.069Z,-1.48
2022-12-14T20:15:48.451Z,-1.50
2022-12-14T20:18:14.924Z,-1.52
2022-12-14T20:20:41.475Z,-1.52
2022-12-14T20:23:07.982Z,-1.50
2022-12-14T20:25:34.502Z,-1.48
2022-12-14T20:28:00.870Z,-1.48
2022-12-14T20:30:27.265Z,-1.50
2022-12-14T20:32:53.711Z,-1.52
2022-12-14T20:35:20.078Z,-1.52
2022-12-14T20:37:46.460Z,-1.50
2022-12-14T20:40:13.660Z,-1.51
2022-12-14T20:42:40.112Z,-1.52
2022-12-14T20:45:07.623Z,-1.54
2022-12-14T20:47:34.525Z,-1.52
2022-12-14T20:50:00.933Z,-1.53
2022-12-14T20:52:27.627Z,-1.54
2022-12-14T20:54:54.076Z,-1.52
2022-12-14T20:57:20.483Z,-1.51
2022-12-14T20:59:49.908Z,-1.52
2022-12-14T21:02:19.145Z,-1.55
2022-12-14T21:04:45.614Z,-1.56
2022-12-14T21:07:12.422Z,-1.59
2022-12-14T21:09:38.790Z,-1.61
2022-12-14T21:12:23.370Z,-1.63
2022-12-14T21:14:55.411Z,-1.60
2022-12-14T21:17:24.469Z,-1.60
2022-12-14T21:19:51.475Z,-1.57
2022-12-14T21:22:24.077Z,-1.55
2022-12-14T21:25:03.028Z,-1.53
2022-12-14T21:27:30.711Z,-1.51
2022-12-14T21:29:57.240Z,-1.48
2022-12-14T21:32:23.685Z,-1.50
2022-12-14T21:34:50.199Z,-1.54
2022-12-14T21:37:17.171Z,-1.54
2022-12-14T21:39:51.860Z,-1.53
2022-12-14T21:42:20.934Z,-1.55
2022-12-14T21:44:49.622Z,-1.59
2022-12-14T21:47:17.348Z,-1.66
2022-12-14T21:49:44.817Z,-1.65
2022-12-14T21:52:17.132Z,-1.65
2022-12-14T21:54:43.849Z,-1.69
2022-12-14T21:57:37.960Z,-1.67
2022-12-14T22:00:06.364Z,-1.62
2022-12-14T22:02:32.914Z,-1.58
2022-12-14T22:04:59.402Z,-1.61
2022-12-14T22:07:30.648Z,-1.64
2022-12-14T22:09:57.118Z,-1.62
2022-12-14T22:12:23.663Z,-1.59
2022-12-14T22:14:50.228Z,-1.61
2022-12-14T22:17:16.658Z,-1.65
2022-12-14T22:19:43.395Z,-1.67
2022-12-14T22:22:16.519Z,-1.62
2022-12-14T22:24:43.784Z,-1.61
2022-12-14T22:27:11.955Z,-1.57
2022-12-14T22:29:38.551Z,-1.56
2022-12-14T22:32:05.480Z,-1.53
2022-12-14T22:34:31.966Z,-1.51
2022-12-14T22:36:58.494Z,-1.52
2022-12-14T22:39:24.917Z,-1.52
2022-12-14T22:41:51.368Z,-1.54
2022-12-14T22:44:17.747Z,-1.55
2022-12-14T22:46:44.163Z,-1.59
2022-12-14T22:49:16.196Z,-1.55
2022-12-14T22:51:42.608Z,-1.54
2022-12-14T22:54:14.742Z,-1.53
2022-12-14T22:56:47.102Z,-1.55
2022-12-14T22:59:26.168Z,-1.56
2022-12-14T23:01:54.050Z,-1.55
2022-12-14T23:04:24.936Z,-1.56
2022-12-14T23:06:53.384Z,-1.55
2022-12-14T23:09:44.966Z,-1.55
2022-12-14T23:12:30.764Z,-1.54
2022-12-14T23:15:17.033Z,-1.52
2022-12-14T23:18:05.942Z,-1.50
2022-12-14T23:20:54.141Z,-1.50
2022-12-14T23:23:42.989Z,-1.50
2022-12-14T23:26:28.981Z,-1.46
2022-12-14T23:29:14.714Z,-1.44
2022-12-14T23:32:04.009Z,-1.43
2022-12-14T23:34:55.449Z,-1.43
2022-12-14T23:37:49.367Z,-1.44
2022-12-14T23:40:38.840Z,-1.48
2022-12-14T23:43:33.637Z,-1.51
2022-12-14T23:46:24.607Z,-1.52
2022-12-14T23:49:15.756Z,-1.55
2022-12-14T23:52:08.241Z,-1.53
2022-12-14T23:54:53.052Z,-1.52
2022-12-14T23:57:37.948Z,-1.52
